Terminal Aerodrome Forecast
Issued by NWS

Home | Current Version | Previous Version | Text Only | Print | Product List | Glossary On
Versions: 1 2 3 4 5 6 7 8 9 10 11 12 13 14 15 16 17 18
234
FTUS44 KLZK 241958 CCA
TAFBPK
TAF COR
KBPK 241958Z 2420/2518 18011KT P6SM VCTS BKN035CB
      TEMPO 2420/2424 VRB15G35KT 2SM -TSRA BR OVC015CB
     FM250000 15006KT P6SM SCT100 BKN250
     FM251400 16009KT P6SM VCSH BKN040=

USA.gov is the U.S. government's official web portal to all federal, state and local government web resources and services.